createdAt,value
2022-09-23T00:01:19.216Z,8.23
2022-09-23T00:06:25.425Z,7.97
2022-09-23T00:11:30.308Z,8.02
2022-09-23T00:16:35.818Z,8.07
2022-09-23T00:21:40.847Z,8.00
2022-09-23T00:26:44.607Z,8.07
2022-09-23T00:31:48.319Z,7.20
2022-09-23T00:36:53.305Z,7.82
2022-09-23T00:41:57.139Z,7.45
2022-09-23T00:47:00.957Z,8.63
2022-09-23T00:52:12.331Z,8.07
2022-09-23T00:57:17.960Z,7.40
2022-09-23T01:02:22.227Z,7.50
2022-09-23T01:07:27.353Z,8.18
2022-09-23T01:12:51.127Z,8.05
2022-09-23T01:18:05.308Z,7.57
2022-09-23T01:23:28.774Z,8.63
2022-09-23T01:28:54.286Z,8.38
2022-09-23T01:34:03.239Z,7.57
2022-09-23T01:39:14.154Z,7.68
2022-09-23T01:44:22.887Z,8.05
2022-09-23T01:49:33.629Z,8.10
2022-09-23T01:54:40.924Z,7.70
2022-09-23T01:59:48.964Z,7.65
2022-09-23T02:05:01.792Z,8.20
2022-09-23T02:10:12.370Z,7.65
2022-09-23T02:15:19.460Z,7.55
2022-09-23T02:20:29.147Z,7.97
2022-09-23T02:25:41.309Z,7.47
2022-09-23T02:30:49.994Z,7.97
2022-09-23T02:36:01.149Z,7.43
2022-09-23T02:41:10.894Z,7.82
2022-09-23T02:46:14.688Z,8.10
2022-09-23T02:51:20.220Z,7.78
2022-09-23T02:56:23.920Z,8.38
2022-09-23T03:01:40.088Z,9.45
2022-09-23T03:06:57.723Z,8.18
2022-09-23T03:12:13.250Z,7.53
2022-09-23T03:17:26.774Z,9.73
2022-09-23T03:22:36.387Z,9.75
2022-09-23T03:27:42.469Z,10.18
2022-09-23T03:32:47.821Z,10.00
2022-09-23T03:37:58.255Z,11.18
2022-09-23T03:43:03.461Z,11.07
2022-09-23T03:48:07.867Z,10.70
2022-09-23T03:53:14.211Z,13.02
2022-09-23T03:58:17.899Z,12.25
2022-09-23T04:03:22.351Z,10.38
2022-09-23T04:08:27.572Z,11.05
2022-09-23T04:13:31.573Z,11.20
2022-09-23T04:18:35.227Z,10.38
2022-09-23T04:23:40.315Z,9.95
2022-09-23T04:28:43.983Z,9.88
2022-09-23T04:33:47.656Z,9.90
2022-09-23T04:38:52.893Z,11.25
2022-09-23T04:43:57.462Z,11.27
2022-09-23T04:49:01.157Z,11.82
2022-09-23T04:54:06.283Z,11.98
2022-09-23T04:59:10.107Z,11.35
2022-09-23T05:04:14.854Z,11.98
2022-09-23T05:09:19.907Z,10.88
2022-09-23T05:14:23.679Z,12.35
2022-09-23T05:19:27.380Z,10.70
2022-09-23T05:24:32.375Z,10.93
2022-09-23T05:29:36.160Z,11.00
2022-09-23T05:34:40.136Z,10.82
2022-09-23T05:39:45.178Z,11.02
2022-09-23T05:44:48.877Z,10.63
2022-09-23T05:50:00.677Z,10.25
2022-09-23T05:55:07.226Z,9.68
2022-09-23T06:00:13.483Z,10.00
2022-09-23T06:05:17.295Z,9.93
2022-09-23T06:10:22.308Z,10.48
2022-09-23T06:15:26.314Z,9.73
2022-09-23T06:20:30.005Z,9.10
2022-09-23T06:25:36.168Z,9.27
2022-09-23T06:30:40.575Z,8.70
2022-09-23T06:35:54.332Z,8.85
2022-09-23T06:41:03.122Z,8.50
2022-09-23T06:46:08.416Z,9.73
2022-09-23T06:51:19.131Z,8.95
2022-09-23T06:56:24.815Z,9.43
2022-09-23T07:01:28.612Z,8.77
2022-09-23T07:06:32.398Z,8.30
2022-09-23T07:11:37.665Z,8.45
2022-09-23T07:16:41.768Z,8.20
2022-09-23T07:21:45.588Z,7.95
2022-09-23T07:26:50.953Z,7.87
2022-09-23T07:32:00.700Z,7.60
2022-09-23T07:37:10.702Z,7.50
2022-09-23T07:42:15.850Z,7.53
2022-09-23T07:47:20.124Z,7.75
2022-09-23T07:52:24.248Z,7.40
2022-09-23T07:57:29.273Z,7.68
2022-09-23T08:02:32.994Z,7.68
2022-09-23T08:07:37.029Z,7.45
2022-09-23T08:12:42.139Z,7.25
2022-09-23T08:17:46.306Z,6.62
2022-09-23T08:22:51.800Z,7.97
2022-09-23T08:27:57.108Z,8.13
2022-09-23T08:33:00.818Z,8.82
2022-09-23T08:38:04.759Z,8.55
2022-09-23T08:43:18.072Z,8.00
2022-09-23T08:48:30.579Z,8.05
2022-09-23T08:53:36.185Z,6.37
2022-09-23T08:58:51.931Z,7.25
2022-09-23T09:03:57.853Z,6.75
2022-09-23T09:09:03.755Z,5.57
2022-09-23T09:14:22.435Z,4.80
2022-09-23T09:19:55.355Z,5.75
2022-09-23T09:25:05.506Z,5.20
2022-09-23T09:30:13.484Z,4.70
2022-09-23T09:35:28.089Z,5.78
2022-09-23T09:40:32.056Z,5.90
2022-09-23T09:45:57.573Z,5.80
2022-09-23T09:51:19.771Z,6.50
2022-09-23T09:56:31.187Z,6.18
2022-09-23T10:01:36.596Z,6.07
2022-09-23T10:06:41.840Z,5.28
2022-09-23T10:12:04.601Z,5.68
2022-09-23T10:17:18.844Z,5.22
2022-09-23T10:22:29.857Z,6.30
2022-09-23T10:27:36.485Z,6.32
2022-09-23T10:32:45.870Z,4.85
2022-09-23T10:37:52.651Z,4.80
2022-09-23T10:43:21.781Z,5.25
2022-09-23T10:48:41.955Z,5.70
2022-09-23T10:53:54.643Z,4.70
2022-09-23T10:59:09.673Z,5.65
2022-09-23T11:04:29.446Z,5.90
2022-09-23T11:09:41.223Z,4.75
2022-09-23T11:15:02.409Z,4.47
2022-09-23T11:20:31.688Z,4.68
2022-09-23T11:25:48.229Z,4.32
2022-09-23T11:31:02.013Z,4.82
2022-09-23T11:36:10.120Z,4.03
2022-09-23T11:41:19.473Z,4.28
2022-09-23T11:46:34.083Z,4.40
2022-09-23T11:51:45.937Z,4.90
2022-09-23T11:56:54.441Z,4.55
2022-09-23T12:02:15.282Z,4.82
2022-09-23T12:07:27.820Z,3.92
2022-09-23T12:12:40.450Z,4.00
2022-09-23T12:17:59.308Z,3.62
2022-09-23T12:23:19.071Z,3.85
2022-09-23T12:28:26.951Z,4.45
2022-09-23T12:33:33.167Z,4.00
2022-09-23T12:38:41.233Z,3.33
2022-09-23T12:43:54.947Z,3.35
2022-09-23T12:49:03.719Z,4.18
2022-09-23T12:54:24.324Z,4.28
2022-09-23T12:59:31.172Z,4.80
2022-09-23T13:05:03.602Z,5.50
2022-09-23T13:10:16.825Z,5.70
2022-09-23T13:15:29.759Z,5.57
2022-09-23T13:20:38.383Z,5.93
2022-09-23T13:25:44.599Z,5.62
2022-09-23T13:30:52.060Z,6.03
2022-09-23T13:36:01.070Z,5.50
2022-09-23T13:41:12.420Z,5.97
2022-09-23T13:46:19.133Z,5.43
2022-09-23T13:51:25.846Z,5.70
2022-09-23T13:56:32.751Z,5.62
2022-09-23T14:01:37.025Z,5.35
2022-09-23T14:06:42.437Z,4.50
2022-09-23T14:11:47.699Z,5.60
2022-09-23T14:16:52.865Z,5.53
2022-09-23T14:21:57.523Z,5.22
2022-09-23T14:27:14.353Z,5.50
2022-09-23T14:32:21.736Z,5.28
2022-09-23T14:37:47.643Z,5.23
2022-09-23T14:42:58.138Z,4.78
2022-09-23T14:48:09.769Z,5.12
2022-09-23T14:53:36.772Z,4.72
2022-09-23T14:58:51.966Z,5.18
2022-09-23T15:03:57.380Z,5.82
2022-09-23T15:09:01.151Z,6.00
2022-09-23T15:14:33.241Z,7.85
2022-09-23T15:19:31.548Z,6.87
2022-09-23T15:24:38.918Z,6.47
2022-09-23T15:29:43.993Z,6.40
2022-09-23T15:34:50.605Z,6.32
2022-09-23T15:39:54.264Z,6.03
2022-09-23T15:45:00.359Z,5.78
2022-09-23T15:50:07.201Z,6.57
2022-09-23T15:55:16.510Z,6.30
2022-09-23T16:00:21.940Z,6.95
2022-09-23T16:05:33.049Z,6.97
2022-09-23T16:10:37.168Z,6.68
2022-09-23T16:15:42.836Z,6.40
2022-09-23T16:20:47.798Z,6.47
2022-09-23T16:25:51.621Z,6.57
2022-09-23T16:30:56.712Z,6.90
2022-09-23T16:36:01.853Z,7.35
2022-09-23T16:41:06.964Z,9.27
2022-09-23T16:46:14.324Z,14.02
2022-09-23T16:51:20.543Z,10.13
2022-09-23T16:56:28.854Z,9.15
2022-09-23T17:01:52.334Z,8.05
2022-09-23T17:06:56.680Z,7.40
2022-09-23T17:12:10.524Z,7.85
2022-09-23T17:17:15.682Z,8.02
2022-09-23T17:22:19.384Z,9.93
2022-09-23T17:27:24.953Z,12.57
2022-09-23T17:32:30.179Z,10.77
2022-09-23T17:37:33.962Z,9.57
2022-09-23T17:42:42.102Z,10.15
2022-09-23T17:47:54.796Z,11.95
2022-09-23T17:53:00.086Z,8.90
2022-09-23T17:58:03.858Z,9.77
2022-09-23T18:03:08.892Z,9.70
2022-09-23T18:08:12.768Z,9.38
2022-09-23T18:13:16.569Z,9.57
2022-09-23T18:18:21.608Z,9.52
2022-09-23T18:23:26.193Z,9.07
2022-09-23T18:28:34.085Z,10.43
2022-09-23T18:33:39.968Z,9.45
2022-09-23T18:38:43.794Z,9.52
2022-09-23T18:43:48.834Z,10.25
2022-09-23T18:49:12.240Z,10.73
2022-09-23T18:54:16.250Z,11.98
2022-09-23T18:59:23.854Z,15.93
2022-09-23T19:04:29.010Z,14.37
2022-09-23T19:09:32.786Z,18.40
2022-09-23T19:14:36.432Z,15.35
2022-09-23T19:19:42.045Z,18.33
2022-09-23T19:24:45.796Z,15.60
2022-09-23T19:29:50.338Z,17.17
2022-09-23T19:34:55.355Z,16.80
2022-09-23T19:39:59.069Z,19.75
2022-09-23T19:45:02.977Z,18.92
2022-09-23T19:50:09.310Z,19.05
2022-09-23T19:55:13.473Z,19.12
2022-09-23T20:00:17.263Z,18.10
2022-09-23T20:05:23.274Z,20.02
2022-09-23T20:10:27.222Z,17.15
2022-09-23T20:15:30.988Z,19.25
2022-09-23T20:20:36.070Z,16.33
2022-09-23T20:25:57.464Z,17.55
2022-09-23T20:31:01.307Z,19.08
2022-09-23T20:36:07.875Z,17.75
2022-09-23T20:41:12.029Z,18.62
2022-09-23T20:46:16.383Z,17.67
2022-09-23T20:51:21.491Z,17.35
2022-09-23T20:56:25.298Z,16.90
2022-09-23T21:01:29.639Z,16.70
2022-09-23T21:06:35.655Z,16.15
2022-09-23T21:11:39.433Z,16.50
2022-09-23T21:16:43.157Z,16.17
2022-09-23T21:21:48.358Z,16.15
2022-09-23T21:26:52.034Z,17.55
2022-09-23T21:31:55.774Z,16.55
2022-09-23T21:37:00.960Z,16.70
2022-09-23T21:42:05.932Z,17.52
2022-09-23T21:47:09.687Z,17.58
2022-09-23T21:52:14.780Z,17.67
2022-09-23T21:57:18.475Z,19.12
2022-09-23T22:02:23.384Z,19.30
2022-09-23T22:07:28.533Z,18.58
2022-09-23T22:12:32.556Z,19.65
2022-09-23T22:17:36.236Z,21.12
2022-09-23T22:22:41.237Z,20.25
2022-09-23T22:27:58.896Z,20.25
2022-09-23T22:33:09.067Z,21.50
2022-09-23T22:38:14.086Z,20.45
2022-09-23T22:43:18.591Z,22.13
2022-09-23T22:48:22.222Z,22.02
2022-09-23T22:53:29.114Z,23.60
2022-09-23T22:58:33.062Z,24.70
2022-09-23T23:03:37.205Z,22.80
2022-09-23T23:08:42.280Z,23.05
2022-09-23T23:13:46.113Z,23.95
2022-09-23T23:18:49.868Z,23.08
2022-09-23T23:23:54.872Z,25.48
2022-09-23T23:28:59.077Z,24.92
2022-09-23T23:34:02.735Z,25.92
2022-09-23T23:39:08.394Z,24.12
2022-09-23T23:44:13.318Z,24.08
2022-09-23T23:49:17.003Z,23.52
2022-09-23T23:54:22.067Z,21.87
2022-09-23T23:59:28.241Z,20.17
